Terminal Aerodrome Forecast
Issued by NWS

Current Version | Previous Version | Text Only | Print | Product List | Glossary On
Versions: 1 2 3 4 5 6 7 8 9 10 11 12 13 14 15 16 17 18
000
FTUS42 KMLB 230500
TAFFPR
TAF
KFPR 230522Z 2306/2406 02004KT P6SM BKN250
     FM231500 05010KT P6SM SCT030 BKN250
     FM240000 05007KT P6SM SCT030 BKN080=

USA.gov is the U.S. government's official web portal to all federal, state and local government web resources and services.